createdAt,value
2018-04-08T00:01:54.587Z,49.80
2018-04-08T00:04:22.165Z,50.00
2018-04-08T00:06:49.734Z,50.20
2018-04-08T00:09:18.067Z,50.20
2018-04-08T00:11:45.614Z,50.20
2018-04-08T00:14:13.174Z,50.10
2018-04-08T00:16:40.768Z,50.00
2018-04-08T00:19:08.361Z,50.10
2018-04-08T00:21:35.947Z,50.20
2018-04-08T00:24:03.573Z,50.20
2018-04-08T00:26:31.150Z,50.20
2018-04-08T00:28:58.736Z,50.40
2018-04-08T00:31:26.334Z,50.60
2018-04-08T00:33:53.874Z,50.30
2018-04-08T00:36:21.436Z,50.50
2018-04-08T00:38:49.004Z,50.50
2018-04-08T00:41:16.557Z,50.50
2018-04-08T00:43:44.127Z,50.70
2018-04-08T00:46:11.674Z,50.80
2018-04-08T00:48:39.244Z,50.90
2018-04-08T00:51:06.782Z,50.80
2018-04-08T00:53:34.402Z,50.70
2018-04-08T00:56:01.984Z,50.70
2018-04-08T00:58:29.534Z,50.70
2018-04-08T01:00:57.143Z,50.50
2018-04-08T01:03:24.682Z,50.80
2018-04-08T01:05:52.293Z,51.10
2018-04-08T01:08:19.869Z,51.40
2018-04-08T01:10:47.462Z,50.60
2018-04-08T01:13:15.031Z,50.60
2018-04-08T01:15:42.611Z,50.60
2018-04-08T01:18:10.165Z,50.50
2018-04-08T01:20:37.721Z,50.50
2018-04-08T01:23:05.264Z,50.50
2018-04-08T01:25:32.810Z,50.60
2018-04-08T01:28:00.382Z,50.60
2018-04-08T01:30:27.944Z,50.70
2018-04-08T01:32:55.499Z,50.80
2018-04-08T01:35:23.076Z,51.10
2018-04-08T01:37:50.633Z,51.30
2018-04-08T01:40:18.202Z,51.30
2018-04-08T01:42:45.741Z,51.20
2018-04-08T01:45:13.320Z,51.10
2018-04-08T01:47:40.985Z,51.20
2018-04-08T01:50:08.541Z,50.80
2018-04-08T01:52:36.125Z,50.70
2018-04-08T01:55:03.722Z,50.60
2018-04-08T01:57:31.274Z,50.60
2018-04-08T01:59:58.873Z,50.60
2018-04-08T02:02:26.592Z,50.70
2018-04-08T02:04:54.155Z,50.50
2018-04-08T02:07:21.703Z,50.50
2018-04-08T02:09:49.343Z,50.40
2018-04-08T02:12:17.058Z,50.50
2018-04-08T02:14:44.639Z,50.50
2018-04-08T02:17:12.168Z,50.40
2018-04-08T02:19:39.741Z,50.20
2018-04-08T02:22:07.298Z,50.40
2018-04-08T02:24:34.864Z,50.50
2018-04-08T02:27:02.440Z,50.40
2018-04-08T02:29:30.002Z,50.60
2018-04-08T02:31:57.601Z,50.70
2018-04-08T02:34:25.125Z,50.80
2018-04-08T02:36:52.665Z,50.80
2018-04-08T02:39:20.237Z,51.00
2018-04-08T02:41:47.802Z,51.10
2018-04-08T02:44:15.368Z,51.00
2018-04-08T02:46:42.922Z,51.00
2018-04-08T02:49:10.476Z,51.00
2018-04-08T02:51:38.042Z,50.90
2018-04-08T02:54:05.562Z,50.90
2018-04-08T02:56:33.085Z,50.90
2018-04-08T02:59:00.645Z,51.00
2018-04-08T03:01:28.179Z,51.10
2018-04-08T03:03:55.764Z,50.90
2018-04-08T03:06:23.300Z,51.00
2018-04-08T03:08:50.859Z,51.30
2018-04-08T03:11:18.376Z,51.30
2018-04-08T03:13:45.943Z,51.30
2018-04-08T03:16:13.524Z,51.30
2018-04-08T03:18:41.049Z,51.50
2018-04-08T03:21:08.627Z,51.30
2018-04-08T03:23:36.156Z,51.40
2018-04-08T03:26:04.483Z,51.50
2018-04-08T03:28:32.005Z,51.50
2018-04-08T03:30:59.601Z,51.60
2018-04-08T03:33:27.133Z,51.60
2018-04-08T03:35:54.717Z,51.60
2018-04-08T03:38:22.248Z,51.50
2018-04-08T03:40:49.807Z,51.70
2018-04-08T03:43:17.398Z,51.60
2018-04-08T03:45:44.956Z,51.60
2018-04-08T03:48:12.487Z,51.50
2018-04-08T03:50:40.068Z,51.80
2018-04-08T03:53:07.604Z,51.40
2018-04-08T03:55:35.215Z,51.40
2018-04-08T03:58:02.741Z,51.40
2018-04-08T04:00:30.337Z,51.50
2018-04-08T04:02:57.881Z,51.60
2018-04-08T04:05:25.438Z,51.60
2018-04-08T04:07:52.968Z,51.60
2018-04-08T04:10:20.528Z,51.40
2018-04-08T04:12:48.052Z,51.40
2018-04-08T04:15:15.638Z,51.70
2018-04-08T04:17:43.176Z,50.80
2018-04-08T04:20:22.613Z,51.30
2018-04-08T04:23:01.912Z,51.30
2018-04-08T04:28:34.291Z,51.10
2018-04-08T04:31:01.862Z,51.20
2018-04-08T04:33:29.411Z,51.20
2018-04-08T04:35:56.966Z,51.20
2018-04-08T04:38:24.525Z,51.30
2018-04-08T04:40:52.090Z,51.70
2018-04-08T04:43:19.650Z,51.90
2018-04-08T04:45:47.168Z,52.00
2018-04-08T04:48:14.680Z,52.00
2018-04-08T04:50:42.232Z,51.90
2018-04-08T04:53:09.783Z,51.90
2018-04-08T04:55:37.348Z,51.90
2018-04-08T04:58:04.866Z,51.80
2018-04-08T05:00:32.430Z,51.80
2018-04-08T05:03:00.756Z,52.30
2018-04-08T05:05:28.317Z,52.20
2018-04-08T05:07:55.946Z,52.10
2018-04-08T05:10:23.466Z,52.40
2018-04-08T05:12:51.032Z,52.50
2018-04-08T05:15:18.608Z,52.50
2018-04-08T05:17:46.232Z,52.50
2018-04-08T05:20:13.780Z,52.20
2018-04-08T05:22:41.364Z,51.90
2018-04-08T05:25:08.943Z,51.80
2018-04-08T05:27:36.652Z,51.90
2018-04-08T05:30:04.179Z,51.60
2018-04-08T05:32:31.727Z,51.70
2018-04-08T05:34:59.304Z,51.80
2018-04-08T05:37:26.866Z,51.70
2018-04-08T05:39:54.446Z,51.60
2018-04-08T05:42:22.026Z,51.70
2018-04-08T05:44:49.770Z,51.80
2018-04-08T05:47:17.335Z,51.60
2018-04-08T05:49:44.900Z,51.70
2018-04-08T05:52:12.454Z,51.80
2018-04-08T05:54:40.063Z,51.50
2018-04-08T05:57:07.606Z,51.70
2018-04-08T05:59:35.318Z,51.70
2018-04-08T06:02:02.872Z,51.80
2018-04-08T06:04:30.454Z,52.40
2018-04-08T06:06:57.977Z,52.80
2018-04-08T06:09:25.521Z,53.00
2018-04-08T06:11:53.880Z,52.90
2018-04-08T06:14:21.441Z,52.90
2018-04-08T06:16:49.023Z,52.70
2018-04-08T06:19:16.582Z,52.90
2018-04-08T06:21:44.928Z,53.00
2018-04-08T06:24:12.441Z,52.90
2018-04-08T06:26:40.001Z,52.80
2018-04-08T06:29:07.562Z,53.00
2018-04-08T06:31:35.145Z,52.80
2018-04-08T06:34:02.777Z,52.50
2018-04-08T06:36:30.324Z,52.60
2018-04-08T06:38:58.667Z,52.80
2018-04-08T06:41:26.218Z,52.70
2018-04-08T06:43:53.819Z,52.70
2018-04-08T06:46:21.343Z,52.60
2018-04-08T06:48:48.906Z,52.40
2018-04-08T06:51:16.437Z,52.10
2018-04-08T06:53:44.149Z,52.30
2018-04-08T06:56:11.676Z,52.10
2018-04-08T06:58:39.239Z,51.80
2018-04-08T07:01:07.024Z,51.30
2018-04-08T07:03:34.597Z,51.20
2018-04-08T07:06:02.127Z,51.10
2018-04-08T07:08:29.681Z,51.10
2018-04-08T07:10:57.241Z,51.60
2018-04-08T07:13:24.770Z,50.80
2018-04-08T07:15:52.293Z,50.80
2018-04-08T07:18:19.860Z,50.70
2018-04-08T07:20:48.199Z,50.80
2018-04-08T07:23:15.729Z,50.80
2018-04-08T07:25:43.322Z,50.80
2018-04-08T07:28:10.911Z,50.80
2018-04-08T07:30:39.260Z,50.30
2018-04-08T07:33:06.820Z,50.30
2018-04-08T07:35:35.045Z,49.90
2018-04-08T07:38:02.637Z,49.40
2018-04-08T07:40:30.196Z,49.00
2018-04-08T07:42:57.961Z,48.50
2018-04-08T07:45:25.498Z,48.10
2018-04-08T07:47:53.064Z,47.70
2018-04-08T07:50:21.151Z,47.30
2018-04-08T07:52:48.698Z,46.80
2018-04-08T07:55:16.256Z,46.40
2018-04-08T07:57:43.817Z,46.30
2018-04-08T08:00:11.470Z,45.90
2018-04-08T08:02:39.040Z,45.60
2018-04-08T08:05:06.655Z,45.50
2018-04-08T08:07:34.250Z,45.20
2018-04-08T08:10:01.838Z,45.20
2018-04-08T08:12:29.449Z,45.50
2018-04-08T08:14:57.748Z,45.20
2018-04-08T08:17:25.309Z,45.20
2018-04-08T08:19:52.842Z,45.00
2018-04-08T08:22:20.429Z,45.10
2018-04-08T08:24:48.024Z,44.70
2018-04-08T08:27:15.624Z,44.20
2018-04-08T08:29:43.207Z,43.70
2018-04-08T08:32:10.977Z,43.50
2018-04-08T08:34:38.557Z,43.30
2018-04-08T08:37:06.260Z,43.80
2018-04-08T08:39:33.835Z,43.10
2018-04-08T08:42:01.506Z,43.10
2018-04-08T08:44:29.053Z,43.10
2018-04-08T08:46:57.619Z,43.40
2018-04-08T08:49:25.182Z,43.70
2018-04-08T08:51:52.753Z,43.90
2018-04-08T08:54:20.438Z,44.00
2018-04-08T08:56:48.019Z,44.10
2018-04-08T08:59:15.674Z,44.00
2018-04-08T09:01:43.217Z,44.40
2018-04-08T09:04:12.177Z,44.60
2018-04-08T09:06:39.911Z,44.60
2018-04-08T09:09:07.494Z,44.50
2018-04-08T09:11:35.097Z,44.70
2018-04-08T09:14:02.999Z,44.80
2018-04-08T09:16:30.564Z,44.70
2018-04-08T09:19:09.586Z,44.70
2018-04-08T09:21:42.851Z,44.80
2018-04-08T09:24:11.186Z,44.80
2018-04-08T09:26:38.720Z,44.70
2018-04-08T09:29:06.297Z,44.70
2018-04-08T09:31:33.822Z,44.80
2018-04-08T09:34:01.445Z,44.60
2018-04-08T09:36:29.126Z,44.70
2018-04-08T09:38:56.877Z,44.50
2018-04-08T09:41:25.204Z,44.00
2018-04-08T09:43:53.391Z,44.00
2018-04-08T09:46:20.942Z,43.90
2018-04-08T09:48:48.528Z,44.00
2018-04-08T09:51:16.070Z,43.70
2018-04-08T09:53:43.658Z,43.70
2018-04-08T09:56:11.280Z,44.40
2018-04-08T09:58:39.037Z,43.60
2018-04-08T10:01:25.267Z,43.70
2018-04-08T10:03:52.918Z,43.70
2018-04-08T10:06:20.472Z,43.60
2018-04-08T10:08:48.035Z,43.60
2018-04-08T10:11:15.899Z,43.50
2018-04-08T10:13:43.478Z,43.50
2018-04-08T10:16:11.021Z,43.60
2018-04-08T10:18:38.580Z,43.60
2018-04-08T10:21:06.127Z,43.50
2018-04-08T10:23:33.748Z,43.50
2018-04-08T10:26:01.430Z,43.50
2018-04-08T10:28:29.400Z,43.50
2018-04-08T10:30:56.954Z,43.60
2018-04-08T10:33:25.272Z,43.60
2018-04-08T10:35:52.842Z,43.60
2018-04-08T10:38:20.455Z,43.40
2018-04-08T10:40:48.877Z,43.00
2018-04-08T10:43:16.479Z,43.00
2018-04-08T10:45:44.091Z,42.90
2018-04-08T10:48:11.647Z,42.90
2018-04-08T10:50:39.220Z,42.70
2018-04-08T10:53:06.786Z,42.90
2018-04-08T10:55:34.344Z,42.60
2018-04-08T10:58:01.904Z,42.30
2018-04-08T11:00:29.505Z,42.20
2018-04-08T11:02:57.132Z,42.30
2018-04-08T11:05:24.726Z,42.40
2018-04-08T11:07:52.296Z,42.50
2018-04-08T11:10:19.885Z,41.80
2018-04-08T11:12:47.524Z,41.70
2018-04-08T11:15:15.088Z,41.70
2018-04-08T11:17:42.753Z,41.70
2018-04-08T11:20:10.413Z,41.70
2018-04-08T11:22:37.975Z,41.50
2018-04-08T11:25:05.629Z,41.40
2018-04-08T11:27:33.192Z,41.70
2018-04-08T11:30:00.747Z,41.80
2018-04-08T11:32:28.301Z,41.40
2018-04-08T11:34:55.872Z,41.40
2018-04-08T11:37:23.444Z,40.80
2018-04-08T11:39:51.133Z,40.60
2018-04-08T11:42:18.693Z,40.70
2018-04-08T11:44:46.485Z,40.90
2018-04-08T11:47:14.060Z,41.00
2018-04-08T11:49:41.692Z,40.30
2018-04-08T11:52:09.255Z,40.70
2018-04-08T11:54:36.820Z,40.40
2018-04-08T11:57:05.627Z,40.00
2018-04-08T11:59:33.245Z,39.30
2018-04-08T12:02:00.873Z,39.20
2018-04-08T12:04:28.339Z,39.30
2018-04-08T12:06:55.919Z,39.00
2018-04-08T12:09:23.480Z,39.00
2018-04-08T12:11:51.055Z,39.40
2018-04-08T12:14:18.620Z,38.40
2018-04-08T12:16:46.175Z,37.40
2018-04-08T12:19:13.841Z,38.00
2018-04-08T12:21:41.449Z,38.40
2018-04-08T12:24:08.953Z,38.10
2018-04-08T12:26:36.522Z,38.10
2018-04-08T12:29:04.102Z,37.40
2018-04-08T12:31:31.852Z,38.00
2018-04-08T12:33:59.388Z,38.50
2018-04-08T12:36:26.947Z,38.40
2018-04-08T12:38:54.482Z,38.50
2018-04-08T12:41:22.222Z,38.70
2018-04-08T12:43:49.807Z,37.90
2018-04-08T12:46:17.375Z,38.20
2018-04-08T12:48:44.941Z,39.20
2018-04-08T12:51:12.475Z,39.60
2018-04-08T12:53:40.099Z,38.40
2018-04-08T12:56:07.645Z,38.30
2018-04-08T12:58:35.216Z,38.80
2018-04-08T13:01:02.756Z,39.50
2018-04-08T13:03:30.343Z,39.50
2018-04-08T13:05:57.877Z,39.80
2018-04-08T13:08:25.536Z,40.10
2018-04-08T13:10:53.309Z,40.30
2018-04-08T13:13:20.897Z,40.50
2018-04-08T13:15:48.710Z,41.10
2018-04-08T13:18:16.644Z,39.60
2018-04-08T13:20:44.368Z,39.40
2018-04-08T13:23:11.904Z,39.80
2018-04-08T13:25:39.539Z,39.80
2018-04-08T13:28:07.115Z,40.00
2018-04-08T13:30:35.090Z,40.30
2018-04-08T13:33:02.655Z,40.30
2018-04-08T13:35:30.239Z,40.60
2018-04-08T13:37:57.818Z,40.50
2018-04-08T13:40:25.408Z,40.50
2018-04-08T13:42:52.962Z,40.40
2018-04-08T13:45:21.322Z,40.50
2018-04-08T13:47:49.619Z,40.60
2018-04-08T13:50:18.437Z,40.20
2018-04-08T13:52:46.007Z,40.20
2018-04-08T13:55:13.637Z,40.00
2018-04-08T13:57:41.214Z,39.90
2018-04-08T14:00:08.792Z,40.20
2018-04-08T14:02:36.419Z,40.10
2018-04-08T14:05:03.998Z,40.30
2018-04-08T14:07:31.572Z,40.40
2018-04-08T14:09:59.145Z,40.10
2018-04-08T14:12:26.706Z,39.90
2018-04-08T14:14:54.249Z,39.70
2018-04-08T14:17:21.814Z,39.40
2018-04-08T14:19:49.461Z,39.60
2018-04-08T14:22:17.033Z,39.30
2018-04-08T14:24:44.613Z,39.50
2018-04-08T14:27:12.189Z,39.30
2018-04-08T14:29:39.713Z,39.30
2018-04-08T14:32:07.364Z,38.90
2018-04-08T14:34:35.316Z,38.80
2018-04-08T14:37:02.853Z,38.90
2018-04-08T14:39:30.434Z,39.20
2018-04-08T14:41:58.016Z,39.30
2018-04-08T14:44:25.609Z,39.40
2018-04-08T14:46:53.152Z,39.30
2018-04-08T14:49:20.671Z,39.10
2018-04-08T14:51:48.319Z,39.20
2018-04-08T14:54:16.630Z,39.20
2018-04-08T14:56:44.188Z,39.10
2018-04-08T14:59:11.768Z,38.80
2018-04-08T15:01:46.661Z,39.10
2018-04-08T15:04:07.048Z,38.40
2018-04-08T15:06:34.622Z,37.50
2018-04-08T15:09:02.188Z,37.60
2018-04-08T15:11:29.752Z,37.60
2018-04-08T15:13:57.318Z,37.60
2018-04-08T15:16:24.966Z,37.80
2018-04-08T15:18:52.587Z,37.80
2018-04-08T15:21:20.229Z,37.50
2018-04-08T15:23:47.877Z,37.60
2018-04-08T15:26:15.551Z,36.70
2018-04-08T15:28:43.201Z,36.70
2018-04-08T15:31:10.788Z,36.90
2018-04-08T15:33:38.323Z,36.70
2018-04-08T15:36:05.941Z,36.90
2018-04-08T15:38:33.483Z,36.70
2018-04-08T15:41:01.047Z,36.90
2018-04-08T15:43:29.370Z,37.40
2018-04-08T15:45:56.929Z,37.30
2018-04-08T15:48:24.486Z,37.10
2018-04-08T15:50:52.047Z,36.90
2018-04-08T15:53:19.568Z,37.10
2018-04-08T15:55:47.952Z,37.10
2018-04-08T15:58:15.563Z,37.00
2018-04-08T16:00:43.161Z,37.10
2018-04-08T16:03:11.491Z,36.80
2018-04-08T16:05:39.052Z,36.80
2018-04-08T16:08:06.650Z,37.40
2018-04-08T16:10:34.271Z,37.70
2018-04-08T16:13:01.841Z,37.80
2018-04-08T16:15:29.380Z,37.60
2018-04-08T16:17:56.943Z,37.30
2018-04-08T16:20:24.504Z,37.00
2018-04-08T16:22:52.114Z,37.30
2018-04-08T16:25:20.445Z,37.40
2018-04-08T16:27:48.020Z,37.30
2018-04-08T16:30:15.561Z,37.90
2018-04-08T16:32:43.134Z,37.90
2018-04-08T16:35:10.732Z,37.80
2018-04-08T16:37:38.372Z,37.50
2018-04-08T16:40:05.952Z,37.70
2018-04-08T16:42:33.580Z,36.90
2018-04-08T16:45:01.111Z,37.30
2018-04-08T16:47:28.684Z,37.50
2018-04-08T16:49:56.200Z,37.90
2018-04-08T16:52:23.761Z,37.40
2018-04-08T16:54:52.080Z,37.80
2018-04-08T16:57:19.649Z,37.80
2018-04-08T16:59:47.164Z,38.20
2018-04-08T17:02:14.716Z,38.30
2018-04-08T17:04:42.574Z,38.30
2018-04-08T17:07:10.918Z,38.60
2018-04-08T17:09:38.432Z,38.60
2018-04-08T17:12:05.964Z,37.90
2018-04-08T17:14:33.639Z,37.90
2018-04-08T17:17:01.206Z,38.20
2018-04-08T17:19:28.732Z,39.20
2018-04-08T17:21:56.324Z,37.90
2018-04-08T17:24:24.654Z,38.10
2018-04-08T17:26:52.212Z,38.10
2018-04-08T17:29:19.773Z,37.90
2018-04-08T17:31:47.291Z,38.00
2018-04-08T17:34:14.860Z,38.00
2018-04-08T17:36:42.475Z,37.60
2018-04-08T17:39:10.140Z,37.90
2018-04-08T17:41:37.745Z,38.10
2018-04-08T17:44:05.444Z,38.30
2018-04-08T17:46:32.963Z,38.70
2018-04-08T17:49:00.487Z,38.90
2018-04-08T17:51:28.073Z,39.00
2018-04-08T17:53:55.683Z,39.20
2018-04-08T17:56:23.252Z,39.60
2018-04-08T17:58:50.788Z,39.80
2018-04-08T18:01:18.378Z,40.00
2018-04-08T18:03:45.951Z,40.30
2018-04-08T18:06:13.632Z,40.40
2018-04-08T18:08:42.108Z,40.60
2018-04-08T18:11:10.469Z,40.70
2018-04-08T18:13:38.030Z,40.70
2018-04-08T18:16:05.596Z,40.90
2018-04-08T18:18:33.937Z,41.20
2018-04-08T18:21:01.562Z,41.20
2018-04-08T18:23:29.088Z,41.40
2018-04-08T18:25:56.660Z,41.50
2018-04-08T18:28:25.029Z,42.50
2018-04-08T18:30:53.346Z,42.70
2018-04-08T18:33:21.020Z,42.70
2018-04-08T18:35:48.577Z,42.70
2018-04-08T18:38:16.181Z,43.00
2018-04-08T18:40:43.736Z,43.10
2018-04-08T18:43:11.313Z,43.20
2018-04-08T18:45:39.752Z,43.50
2018-04-08T18:48:07.374Z,44.00
2018-04-08T18:50:34.923Z,43.50
2018-04-08T18:53:03.243Z,43.80
2018-04-08T18:55:30.827Z,43.80
2018-04-08T18:57:58.757Z,44.10
2018-04-08T19:00:26.302Z,44.30
2018-04-08T19:02:53.876Z,44.20
2018-04-08T19:05:21.476Z,44.20
2018-04-08T19:07:49.054Z,44.20
2018-04-08T19:10:16.640Z,44.20
2018-04-08T19:12:44.330Z,44.30
2018-04-08T19:15:17.532Z,44.20
2018-04-08T19:17:50.675Z,44.20
2018-04-08T19:20:18.285Z,44.20
2018-04-08T19:22:45.857Z,44.30
2018-04-08T19:25:14.171Z,44.20
2018-04-08T19:27:41.724Z,44.80
2018-04-08T19:30:14.916Z,44.20
2018-04-08T19:32:42.509Z,44.80
2018-04-08T19:35:10.152Z,44.40
2018-04-08T19:37:37.726Z,44.40
2018-04-08T19:40:05.295Z,44.90
2018-04-08T19:42:33.050Z,45.00
2018-04-08T19:45:00.602Z,45.20
2018-04-08T19:47:28.192Z,45.20
2018-04-08T19:49:55.760Z,45.30
2018-04-08T19:52:23.370Z,45.10
2018-04-08T19:54:50.943Z,45.10
2018-04-08T19:57:18.504Z,45.40
2018-04-08T19:59:46.080Z,45.40
2018-04-08T20:02:13.627Z,45.40
2018-04-08T20:04:41.168Z,45.50
2018-04-08T20:07:08.724Z,45.60
2018-04-08T20:09:36.356Z,45.80
2018-04-08T20:12:03.917Z,45.80
2018-04-08T20:14:31.519Z,45.90
2018-04-08T20:16:59.844Z,45.80
2018-04-08T20:19:27.406Z,45.80
2018-04-08T20:21:54.955Z,45.90
2018-04-08T20:24:22.611Z,45.90
2018-04-08T20:26:50.187Z,46.10
2018-04-08T20:29:17.732Z,46.20
2018-04-08T20:31:45.310Z,46.20
2018-04-08T20:34:12.864Z,46.20
2018-04-08T20:36:40.411Z,46.30
2018-04-08T20:39:07.990Z,46.30
2018-04-08T20:41:35.526Z,46.20
2018-04-08T20:44:03.109Z,46.30
2018-04-08T20:46:31.585Z,46.30
2018-04-08T20:48:59.310Z,46.40
2018-04-08T20:51:26.838Z,46.40
2018-04-08T20:53:54.452Z,46.40
2018-04-08T20:56:21.988Z,46.70
2018-04-08T20:58:50.337Z,47.10
2018-04-08T21:01:17.930Z,47.00
2018-04-08T21:03:45.489Z,47.20
2018-04-08T21:06:13.052Z,47.10
2018-04-08T21:08:40.610Z,47.20
2018-04-08T21:11:08.304Z,47.50
2018-04-08T21:13:35.883Z,47.50
2018-04-08T21:16:03.524Z,47.50
2018-04-08T21:18:31.085Z,47.70
2018-04-08T21:20:58.622Z,47.70
2018-04-08T21:23:26.179Z,47.60
2018-04-08T21:25:53.738Z,47.60
2018-04-08T21:28:21.324Z,47.50
2018-04-08T21:30:48.908Z,47.50
2018-04-08T21:33:16.463Z,47.50
2018-04-08T21:35:44.032Z,47.60
2018-04-08T21:38:11.641Z,47.80
2018-04-08T21:40:39.200Z,47.90
2018-04-08T21:43:06.782Z,47.90
2018-04-08T21:45:34.342Z,48.10
2018-04-08T21:48:01.993Z,48.20
2018-04-08T21:50:29.548Z,48.40
2018-04-08T21:52:57.140Z,48.40
2018-04-08T21:55:24.971Z,48.40
2018-04-08T21:57:52.565Z,48.50
2018-04-08T22:00:20.117Z,48.40
2018-04-08T22:02:47.674Z,48.30
2018-04-08T22:05:15.251Z,48.40
2018-04-08T22:07:42.764Z,48.40
2018-04-08T22:10:10.421Z,48.50
2018-04-08T22:12:37.964Z,48.70
2018-04-08T22:15:05.547Z,48.50
2018-04-08T22:17:33.090Z,48.60
2018-04-08T22:20:00.715Z,48.60
2018-04-08T22:22:28.273Z,48.80
2018-04-08T22:24:55.821Z,48.80
2018-04-08T22:27:23.452Z,48.80
2018-04-08T22:29:51.042Z,49.20
2018-04-08T22:32:18.587Z,49.30
2018-04-08T22:34:46.146Z,49.30
2018-04-08T22:37:13.722Z,49.40
2018-04-08T22:39:41.299Z,49.40
2018-04-08T22:42:08.820Z,49.40
2018-04-08T22:44:36.416Z,49.50
2018-04-08T22:47:03.944Z,49.30
2018-04-08T22:49:31.521Z,49.10
2018-04-08T22:51:59.083Z,49.20
2018-04-08T22:54:26.644Z,49.30
2018-04-08T22:56:54.168Z,49.40
2018-04-08T22:59:21.776Z,49.10
2018-04-08T23:01:49.676Z,48.90
2018-04-08T23:04:17.396Z,49.00
2018-04-08T23:06:44.958Z,49.60
2018-04-08T23:09:12.516Z,49.10
2018-04-08T23:11:40.051Z,49.30
2018-04-08T23:14:07.584Z,49.40
2018-04-08T23:16:35.155Z,49.40
2018-04-08T23:19:02.820Z,49.40
2018-04-08T23:21:30.384Z,49.50
2018-04-08T23:23:57.956Z,49.50
2018-04-08T23:26:25.569Z,49.30
2018-04-08T23:28:53.129Z,49.30
2018-04-08T23:31:20.724Z,49.40
2018-04-08T23:33:48.296Z,49.70
2018-04-08T23:36:15.859Z,49.80
2018-04-08T23:38:43.385Z,49.90
2018-04-08T23:41:11.705Z,49.90
2018-04-08T23:43:39.254Z,49.90
2018-04-08T23:46:06.813Z,49.90
2018-04-08T23:48:34.372Z,50.10
2018-04-08T23:53:43.851Z,49.80
2018-04-08T23:56:11.400Z,49.80
2018-04-08T23:58:38.934Z,50.00
